Time;durP1;ratioP1;P1;durP2;ratioP2;P2;SDS_P1;SDS_P2;PMS_P1;PMS_P2;Temp;Humidity;BMP_temperature;BMP_pressure;BME280_temperature;BME280_humidity;BME280_pressure;Samples;Min_cycle;Max_cycle;Signal;HPM_P1;HPM_P2
2022/10/18 07:06:52;;;;;;;;;;;16.60;99.90;;;;;;5074178;28;19970;-79
2022/10/18 07:09:18;;;;;;;;;;;16.60;99.90;;;;;;5052189;28;20074;-79
2022/10/18 07:11:44;;;;;;;;;;;16.70;99.90;;;;;;5070604;28;19995;-78
2022/10/18 07:14:10;;;;;;;;;;;16.80;99.90;;;;;;5071051;28;19921;-79
2022/10/18 07:16:35;;;;;;;;;;;16.80;99.90;;;;;;5052257;28;19918;-79
2022/10/18 07:19:01;;;;;;;;;;;16.80;99.90;;;;;;5072730;28;19984;-78
2022/10/18 07:21:27;;;;;;;;;;;16.90;99.90;;;;;;5070889;28;19939;-79
2022/10/18 07:23:53;;;;;;;;;;;16.90;99.90;;;;;;5054130;28;19916;-79
2022/10/18 07:26:23;;;;;;;;;;;17.00;99.90;;;;;;5058271;28;20302;-79
2022/10/18 07:28:53;;;;;;;;;;;17.10;99.90;;;;;;5077960;28;19917;-80
2022/10/18 07:31:19;;;;;;;;;;;17.20;99.90;;;;;;5079491;28;19908;-79
2022/10/18 07:33:45;;;;;;;;;;;17.20;99.90;;;;;;5078879;28;19912;-79
2022/10/18 07:36:11;;;;;;;;;;;17.30;99.90;;;;;;5080150;28;19978;-81
2022/10/18 07:38:37;;;;;;;;;;;17.40;99.90;;;;;;5082286;28;19916;-78
2022/10/18 07:41:05;;;;;;;;;;;17.60;99.90;;;;;;5062985;28;19917;-78
2022/10/18 07:43:31;;;;;;;;;;;17.70;99.90;;;;;;5064429;28;19913;-80
2022/10/18 07:45:58;;;;;;;;;;;17.80;99.90;;;;;;5067208;28;19912;-80
2022/10/18 07:48:24;;;;;;;;;;;17.90;99.90;;;;;;5082067;28;20374;-79
2022/10/18 07:50:49;;;;;;;;;;;17.90;99.90;;;;;;5068478;28;19947;-82
2022/10/18 07:53:15;;;;;;;;;;;17.90;99.90;;;;;;5084622;28;19921;-80
2022/10/18 07:55:41;;;;;;;;;;;17.90;99.90;;;;;;5088673;28;19938;-80
2022/10/18 07:58:07;;;;;;;;;;;18.00;99.90;;;;;;5063754;28;20367;-80
2022/10/18 08:00:32;;;;;;;;;;;18.20;99.90;;;;;;5080584;28;19917;-79
2022/10/18 08:02:58;;;;;;;;;;;18.30;99.90;;;;;;5079377;28;19909;-79
2022/10/18 08:05:25;;;;;;;;;;;18.30;99.90;;;;;;5061163;28;19912;-78
2022/10/18 08:07:51;;;;;;;;;;;18.30;99.90;;;;;;5078599;28;19976;-80
2022/10/18 08:10:18;;;;;;;;;;;18.30;99.90;;;;;;5094405;28;19981;-81
2022/10/18 08:12:43;;;;;;;;;;;18.40;99.90;;;;;;5061079;28;19913;-79
2022/10/18 08:15:09;;;;;;;;;;;18.30;99.90;;;;;;5080938;28;19917;-81
2022/10/18 08:17:35;;;;;;;;;;;18.30;99.90;;;;;;5085127;28;20153;-79
2022/10/18 08:20:01;;;;;;;;;;;18.40;99.90;;;;;;5079618;28;19908;-79
2022/10/18 08:22:27;;;;;;;;;;;18.40;99.90;;;;;;5080610;28;20362;-79
2022/10/18 08:24:52;;;;;;;;;;;18.40;99.90;;;;;;5079049;28;19948;-78
2022/10/18 08:27:18;;;;;;;;;;;18.50;99.90;;;;;;5078149;28;19916;-79
2022/10/18 08:29:44;;;;;;;;;;;18.50;99.90;;;;;;5078565;28;19913;-79
2022/10/18 08:32:10;;;;;;;;;;;18.50;99.90;;;;;;5078197;28;20422;-79
2022/10/18 08:34:36;;;;;;;;;;;18.60;99.90;;;;;;5078802;28;19951;-79
2022/10/18 08:37:01;;;;;;;;;;;18.70;99.90;;;;;;5060216;28;19909;-79
2022/10/18 08:39:27;;;;;;;;;;;18.70;99.90;;;;;;5078975;28;19912;-79
2022/10/18 08:42:08;;;;;;;;;;;18.80;99.90;;;;;;5079098;28;19915;-79
2022/10/18 08:44:38;;;;;;;;;;;18.80;99.90;;;;;;5077857;28;19920;-78
2022/10/18 08:47:06;;;;;;;;;;;19.00;99.90;;;;;;5064670;28;20392;-79
2022/10/18 08:49:31;;;;;;;;;;;19.00;99.90;;;;;;5084146;28;19908;-79
2022/10/18 08:51:57;;;;;;;;;;;19.00;99.90;;;;;;5066610;28;19912;-79
2022/10/18 08:54:30;;;;;;;;;;;19.10;99.90;;;;;;5081242;28;19916;-79
2022/10/18 08:57:00;;;;;;;;;;;19.20;99.90;;;;;;5060322;28;19912;-79
2022/10/18 08:59:30;;;;;;;;;;;19.30;99.90;;;;;;5077610;28;19967;-78
2022/10/18 09:02:05;;;;;;;;;;;19.30;99.90;;;;;;5077351;28;19913;-79
2022/10/18 09:04:39;;;;;;;;;;;19.30;99.90;;;;;;5078010;28;19909;-79
2022/10/18 09:07:20;;;;;;;;;;;19.30;99.90;;;;;;5078994;28;19943;-79
2022/10/18 09:09:52;;;;;;;;;;;19.30;99.90;;;;;;5078533;28;20364;-79
2022/10/18 09:12:38;;;;;;;;;;;19.30;99.90;;;;;;5073359;28;19977;-79
2022/10/18 09:15:36;;;;;;;;;;;19.40;99.90;;;;;;5045338;28;19927;-79
2022/10/18 09:18:02;;;;;;;;;;;19.50;99.90;;;;;;5043815;28;19909;-79
2022/10/18 09:20:32;;;;;;;;;;;19.40;99.90;;;;;;5077682;28;20400;-79
2022/10/18 09:23:19;;;;;;;;;;;19.40;99.90;;;;;;5082106;28;20262;-79
2022/10/18 09:25:45;;;;;;;;;;;19.30;99.90;;;;;;5061393;28;19916;-78
2022/10/18 09:28:28;;;;;;;;;;;19.30;99.90;;;;;;5084005;28;19967;-78
2022/10/18 09:31:10;;;;;;;;;;;19.60;99.90;;;;;;5084196;28;20374;-78
2022/10/18 09:34:00;;;;;;;;;;;19.60;99.90;;;;;;5082724;28;19917;-78
2022/10/18 09:36:32;;;;;;;;;;;19.60;99.90;;;;;;5083404;28;19919;-78
2022/10/18 09:39:01;;;;;;;;;;;19.60;99.90;;;;;;5066564;28;19912;-78
2022/10/18 09:41:27;;;;;;;;;;;19.60;99.90;;;;;;5064001;28;20009;-78
2022/10/18 09:44:02;;;;;;;;;;;19.60;99.90;;;;;;5082393;28;19916;-78
2022/10/18 09:46:31;;;;;;;;;;;19.70;99.90;;;;;;5064370;28;19917;-79
2022/10/18 09:49:00;;;;;;;;;;;19.60;99.90;;;;;;5060644;28;19920;-76
2022/10/18 09:51:29;;;;;;;;;;;19.70;99.90;;;;;;5078902;28;19912;-78
2022/10/18 09:54:01;;;;;;;;;;;19.70;99.90;;;;;;5072115;28;19913;-78
2022/10/18 09:56:34;;;;;;;;;;;19.80;99.90;;;;;;5081092;28;19972;-78
2022/10/18 09:59:03;;;;;;;;;;;19.80;99.90;;;;;;5080327;28;19913;-78
2022/10/18 10:01:30;;;;;;;;;;;19.80;99.90;;;;;;5061014;28;19916;-78
2022/10/18 10:03:56;;;;;;;;;;;19.90;99.90;;;;;;5078814;28;19938;-78
2022/10/18 10:06:26;;;;;;;;;;;19.90;99.90;;;;;;5081369;28;19999;-78
2022/10/18 10:08:57;;;;;;;;;;;20.10;99.90;;;;;;5081530;28;19917;-78
2022/10/18 10:11:26;;;;;;;;;;;20.10;99.90;;;;;;5080131;28;19974;-78
2022/10/18 10:13:55;;;;;;;;;;;20.10;99.90;;;;;;5080022;28;19958;-78
2022/10/18 10:16:22;;;;;;;;;;;20.10;99.90;;;;;;5062556;28;20451;-78
2022/10/18 10:18:52;;;;;;;;;;;20.10;99.90;;;;;;5065336;28;19999;-78
2022/10/18 10:21:18;;;;;;;;;;;20.20;99.90;;;;;;5043783;28;19963;-78
2022/10/18 10:23:45;;;;;;;;;;;20.10;99.90;;;;;;5078683;28;20312;-78
2022/10/18 10:26:27;;;;;;;;;;;20.10;99.90;;;;;;5078845;28;19974;-78
2022/10/18 10:28:53;;;;;;;;;;;20.10;99.90;;;;;;5083337;28;19963;-78
2022/10/18 10:31:27;;;;;;;;;;;20.10;99.90;;;;;;5080839;28;20372;-78
2022/10/18 10:34:11;;;;;;;;;;;20.20;99.90;;;;;;5079885;28;19920;-78
2022/10/18 10:36:45;;;;;;;;;;;20.10;99.90;;;;;;5079748;28;19912;-78
2022/10/18 10:39:15;;;;;;;;;;;20.20;99.90;;;;;;5060526;28;19909;-78
2022/10/18 10:41:40;;;;;;;;;;;20.30;99.90;;;;;;5085062;28;19919;-78
2022/10/18 10:44:33;;;;;;;;;;;20.30;99.90;;;;;;5063902;28;19913;-78
2022/10/18 10:47:02;;;;;;;;;;;20.30;99.90;;;;;;5079098;28;19919;-78
2022/10/18 10:49:33;;;;;;;;;;;20.30;99.90;;;;;;5061549;28;19997;-79
2022/10/18 10:52:01;;;;;;;;;;;20.30;99.90;;;;;;5060969;28;19919;-78
2022/10/18 10:54:27;;;;;;;;;;;20.40;99.90;;;;;;5080227;28;19958;-77
2022/10/18 10:56:55;;;;;;;;;;;20.40;99.90;;;;;;5076575;28;20331;-77
2022/10/18 10:59:22;;;;;;;;;;;20.30;99.90;;;;;;5079278;28;20354;-77
2022/10/18 11:01:50;;;;;;;;;;;20.30;99.90;;;;;;5076201;28;19934;-77
2022/10/18 11:04:24;;;;;;;;;;;20.20;99.90;;;;;;5067739;28;19935;-77
2022/10/18 11:06:50;;;;;;;;;;;20.10;99.90;;;;;;5082986;28;19944;-78
2022/10/18 11:09:35;;;;;;;;;;;20.00;99.90;;;;;;5077037;28;19921;-78
2022/10/18 11:12:15;;;;;;;;;;;19.90;99.90;;;;;;5088832;28;19957;-77
2022/10/18 11:14:43;;;;;;;;;;;19.90;99.90;;;;;;5076115;28;19963;-76
2022/10/18 11:17:27;;;;;;;;;;;19.90;99.90;;;;;;5075263;28;21792;-77
2022/10/18 11:20:26;;;;;;;;;;;19.90;99.90;;;;;;5077663;28;19919;-78
2022/10/18 11:22:55;;;;;;;;;;;19.80;99.90;;;;;;5079114;28;19959;-77
2022/10/18 11:25:22;;;;;;;;;;;19.80;99.90;;;;;;5074010;28;19916;-77
2022/10/18 11:27:53;;;;;;;;;;;19.80;99.90;;;;;;5073402;28;19917;-77
2022/10/18 11:30:45;;;;;;;;;;;19.80;99.90;;;;;;5075816;28;19908;-77
2022/10/18 11:33:19;;;;;;;;;;;19.70;99.90;;;;;;5059387;28;20250;-76
2022/10/18 11:36:05;;;;;;;;;;;19.60;99.90;;;;;;5075092;28;19912;-77
2022/10/18 11:38:39;;;;;;;;;;;19.70;99.90;;;;;;5069407;28;19919;-77
2022/10/18 11:41:12;;;;;;;;;;;19.70;99.90;;;;;;5054026;28;19954;-77
2022/10/18 11:43:44;;;;;;;;;;;19.70;99.90;;;;;;5070952;28;19935;-77
2022/10/18 11:46:26;;;;;;;;;;;19.70;99.90;;;;;;5075554;28;20010;-77
2022/10/18 11:48:58;;;;;;;;;;;19.60;99.90;;;;;;5057103;28;19917;-78
2022/10/18 11:51:53;;;;;;;;;;;19.70;99.90;;;;;;5082665;28;19912;-78
2022/10/18 11:54:19;;;;;;;;;;;19.70;99.90;;;;;;5040123;28;19912;-77
2022/10/18 11:57:11;;;;;;;;;;;19.80;99.90;;;;;;5077038;28;20003;-78
2022/10/18 11:59:57;;;;;;;;;;;19.70;99.90;;;;;;5056180;28;19914;-78
2022/10/18 12:02:23;;;;;;;;;;;19.70;99.90;;;;;;5078543;28;19916;-78
2022/10/18 12:04:56;;;;;;;;;;;19.80;99.90;;;;;;5077449;28;19912;-78
2022/10/18 12:07:22;;;;;;;;;;;19.90;99.90;;;;;;5090536;28;19916;-78
2022/10/18 12:09:50;;;;;;;;;;;19.90;99.90;;;;;;5077000;28;19944;-78
2022/10/18 12:12:23;;;;;;;;;;;19.90;99.90;;;;;;5079698;28;20299;-77
2022/10/18 12:14:49;;;;;;;;;;;19.80;99.90;;;;;;5092610;28;19943;-78
2022/10/18 12:17:34;;;;;;;;;;;19.90;99.90;;;;;;5075945;28;19920;-78
2022/10/18 12:20:26;;;;;;;;;;;19.90;99.90;;;;;;5073536;28;19952;-78
2022/10/18 12:22:59;;;;;;;;;;;19.90;99.90;;;;;;5071389;28;19974;-78
2022/10/18 12:25:27;;;;;;;;;;;19.90;99.90;;;;;;5058986;28;19913;-79
2022/10/18 12:28:06;;;;;;;;;;;19.90;99.90;;;;;;5082671;28;19928;-78
2022/10/18 12:30:36;;;;;;;;;;;19.90;99.90;;;;;;5059840;28;19919;-78
2022/10/18 12:33:08;;;;;;;;;;;19.90;99.90;;;;;;5082781;28;19912;-78
2022/10/18 12:35:55;;;;;;;;;;;19.90;99.90;;;;;;5059790;28;20384;-78
2022/10/18 12:38:24;;;;;;;;;;;20.00;99.90;;;;;;5090822;28;20361;-78
2022/10/18 12:40:51;;;;;;;;;;;20.00;99.90;;;;;;5072435;28;20006;-78
2022/10/18 12:43:24;;;;;;;;;;;20.00;99.90;;;;;;5079539;28;19959;-77
2022/10/18 12:45:52;;;;;;;;;;;20.00;99.90;;;;;;5079073;28;20313;-78
2022/10/18 12:48:32;;;;;;;;;;;20.10;99.90;;;;;;5080994;28;19937;-78
2022/10/18 12:51:14;;;;;;;;;;;20.00;99.90;;;;;;5076193;28;19981;-78
2022/10/18 12:53:41;;;;;;;;;;;20.10;99.90;;;;;;5081567;28;19919;-79
2022/10/18 12:56:25;;;;;;;;;;;20.00;99.90;;;;;;5083692;28;19912;-79
2022/10/18 12:58:54;;;;;;;;;;;20.10;99.90;;;;;;5084481;28;19947;-79
2022/10/18 13:01:20;;;;;;;;;;;20.10;99.90;;;;;;5087211;28;19908;-79
2022/10/18 13:03:51;;;;;;;;;;;20.10;99.90;;;;;;5086432;28;19923;-79
2022/10/18 13:06:17;;;;;;;;;;;20.10;99.90;;;;;;5099982;28;19916;-79
2022/10/18 13:08:44;;;;;;;;;;;20.10;99.90;;;;;;5069182;28;19963;-79
2022/10/18 13:11:10;;;;;;;;;;;20.20;99.90;;;;;;5084401;28;19908;-79
2022/10/18 13:13:36;;;;;;;;;;;20.20;99.90;;;;;;5084178;28;20051;-79
2022/10/18 13:16:26;;;;;;;;;;;20.20;99.90;;;;;;5079878;28;20370;-79
2022/10/18 13:18:55;;;;;;;;;;;20.20;99.90;;;;;;5079562;28;19912;-79
2022/10/18 13:21:34;;;;;;;;;;;20.30;99.90;;;;;;5079252;28;19988;-78
2022/10/18 13:23:59;;;;;;;;;;;20.30;99.90;;;;;;5081836;28;19912;-79
2022/10/18 13:26:35;;;;;;;;;;;20.30;99.90;;;;;;5078093;28;19986;-79
2022/10/18 13:29:20;;;;;;;;;;;20.40;99.90;;;;;;5075572;28;19947;-78
2022/10/18 13:31:52;;;;;;;;;;;20.40;99.90;;;;;;5073260;28;19919;-79
2022/10/18 13:34:23;;;;;;;;;;;20.40;99.90;;;;;;5079334;28;19912;-80
2022/10/18 13:37:08;;;;;;;;;;;20.50;99.90;;;;;;5093833;28;20100;-77
2022/10/18 13:39:34;;;;;;;;;;;20.50;99.90;;;;;;5079231;28;19999;-78
2022/10/18 13:42:00;;;;;;;;;;;20.50;99.90;;;;;;5062293;28;20385;-77
2022/10/18 13:44:36;;;;;;;;;;;20.40;99.90;;;;;;5076623;28;19912;-78
2022/10/18 13:47:02;;;;;;;;;;;20.50;99.90;;;;;;5076152;28;19920;-77
2022/10/18 13:49:46;;;;;;;;;;;20.40;99.90;;;;;;5077903;28;19912;-78
2022/10/18 13:52:36;;;;;;;;;;;20.50;99.90;;;;;;5073660;28;19916;-78
2022/10/18 13:55:05;;;;;;;;;;;20.40;99.90;;;;;;5076257;28;20374;-78
2022/10/18 13:57:49;;;;;;;;;;;20.40;99.90;;;;;;5076158;28;20602;-79
2022/10/18 14:00:35;;;;;;;;;;;20.30;99.90;;;;;;5099383;28;19913;-79
2022/10/18 14:03:01;;;;;;;;;;;20.30;99.90;;;;;;5082792;28;19908;-79
2022/10/18 14:05:41;;;;;;;;;;;20.30;99.90;;;;;;5069353;28;19923;-79
2022/10/18 14:08:14;;;;;;;;;;;20.20;99.90;;;;;;5065689;28;20007;-80
2022/10/18 14:10:59;;;;;;;;;;;20.10;99.90;;;;;;5066630;28;19991;-80
2022/10/18 14:13:27;;;;;;;;;;;20.00;99.90;;;;;;5089315;28;19965;-79
2022/10/18 14:15:55;;;;;;;;;;;20.10;99.90;;;;;;5076805;28;19916;-79
2022/10/18 14:18:31;;;;;;;;;;;20.10;99.90;;;;;;5073064;28;19913;-79
2022/10/18 14:21:03;;;;;;;;;;;20.10;99.90;;;;;;5080515;28;19927;-79
2022/10/18 14:23:43;;;;;;;;;;;20.20;99.90;;;;;;5080719;28;19919;-79
2022/10/18 14:26:27;;;;;;;;;;;20.30;99.90;;;;;;5077700;28;19925;-79
2022/10/18 14:29:03;;;;;;;;;;;20.30;99.90;;;;;;5076915;28;19921;-78
2022/10/18 14:31:36;;;;;;;;;;;20.30;99.90;;;;;;5056916;28;20282;-78
2022/10/18 14:34:02;;;;;;;;;;;20.30;99.90;;;;;;5079429;28;19912;-78
2022/10/18 14:36:38;;;;;;;;;;;20.40;99.90;;;;;;5073481;28;20002;-78
2022/10/18 14:39:05;;;;;;;;;;;20.40;99.90;;;;;;5080942;28;19916;-79
2022/10/18 14:41:34;;;;;;;;;;;20.40;99.90;;;;;;5088905;28;19909;-79
2022/10/18 14:44:17;;;;;;;;;;;20.40;99.90;;;;;;5080307;28;19960;-78
2022/10/18 14:46:44;;;;;;;;;;;20.40;99.90;;;;;;5078168;28;19921;-78
2022/10/18 14:49:10;;;;;;;;;;;20.20;99.90;;;;;;5076442;28;19934;-79
2022/10/18 14:51:37;;;;;;;;;;;20.20;99.90;;;;;;5077571;28;20356;-78
2022/10/18 14:54:08;;;;;;;;;;;20.10;99.90;;;;;;5080496;28;19934;-78
2022/10/18 14:56:38;;;;;;;;;;;20.00;99.90;;;;;;5057486;28;19927;-78
2022/10/18 14:59:08;;;;;;;;;;;20.00;99.90;;;;;;5081004;28;20482;-78
2022/10/18 15:01:35;;;;;;;;;;;20.00;99.90;;;;;;5059292;28;20018;-79
2022/10/18 15:04:10;;;;;;;;;;;19.90;99.90;;;;;;5077236;28;19934;-79
2022/10/18 15:06:40;;;;;;;;;;;19.90;99.90;;;;;;5077063;28;19917;-78
2022/10/18 15:09:08;;;;;;;;;;;19.80;99.90;;;;;;5075718;28;19912;-78
2022/10/18 15:11:34;;;;;;;;;;;19.80;99.90;;;;;;5066206;28;20290;-78
2022/10/18 15:14:07;;;;;;;;;;;19.70;99.90;;;;;;5056554;28;19909;-78
2022/10/18 15:16:37;;;;;;;;;;;19.70;99.90;;;;;;5068005;28;19912;-78
2022/10/18 15:19:04;;;;;;;;;;;19.70;99.90;;;;;;5056853;28;19916;-78
2022/10/18 15:21:31;;;;;;;;;;;19.60;99.90;;;;;;5077199;28;20301;-78
2022/10/18 15:24:15;;;;;;;;;;;19.60;99.90;;;;;;5077427;28;19975;-78
2022/10/18 15:26:43;;;;;;;;;;;19.60;99.90;;;;;;5081100;28;19969;-78
2022/10/18 15:29:14;;;;;;;;;;;19.50;99.90;;;;;;5071391;28;19917;-78
2022/10/18 15:31:41;;;;;;;;;;;19.50;99.90;;;;;;5077080;28;19919;-78
2022/10/18 15:34:09;;;;;;;;;;;19.40;99.90;;;;;;5080082;28;19919;-78
2022/10/18 15:36:35;;;;;;;;;;;19.30;99.90;;;;;;5078393;28;20281;-79
2022/10/18 15:39:21;;;;;;;;;;;19.30;99.90;;;;;;5081484;28;19913;-79
2022/10/18 15:41:49;;;;;;;;;;;19.20;99.90;;;;;;5077626;28;20292;-79
2022/10/18 15:44:15;;;;;;;;;;;19.20;99.90;;;;;;5079154;28;20003;-79
2022/10/18 15:46:41;;;;;;;;;;;19.10;99.90;;;;;;5085262;28;19952;-79
2022/10/18 15:49:36;;;;;;;;;;;19.10;99.90;;;;;;5077137;28;19909;-79
2022/10/18 15:52:07;;;;;;;;;;;19.10;99.90;;;;;;5075600;28;19909;-78
2022/10/18 15:54:33;;;;;;;;;;;19.00;99.90;;;;;;5092721;28;19915;-78
2022/10/18 15:57:05;;;;;;;;;;;19.00;99.90;;;;;;5076880;28;19912;-79
2022/10/18 15:59:31;;;;;;;;;;;18.90;99.90;;;;;;5075743;28;19964;-79
2022/10/18 16:01:57;;;;;;;;;;;18.80;99.90;;;;;;5058469;28;19963;-79
2022/10/18 16:04:27;;;;;;;;;;;18.70;99.90;;;;;;5078187;28;19916;-78
2022/10/18 16:06:54;;;;;;;;;;;18.70;99.90;;;;;;5076695;28;19927;-78
2022/10/18 16:09:21;;;;;;;;;;;18.70;99.90;;;;;;5075087;28;19930;-79
2022/10/18 16:11:50;;;;;;;;;;;18.60;99.90;;;;;;5077569;28;19912;-79
2022/10/18 16:14:16;;;;;;;;;;;18.50;99.90;;;;;;5068559;28;19917;-78
2022/10/18 16:16:42;;;;;;;;;;;18.50;99.90;;;;;;5077859;28;20233;-79
2022/10/18 16:19:12;;;;;;;;;;;18.50;99.90;;;;;;5074374;28;19912;-79
2022/10/18 16:21:38;;;;;;;;;;;18.40;99.90;;;;;;5066576;28;20003;-79
2022/10/18 16:24:04;;;;;;;;;;;18.40;99.90;;;;;;5075788;28;19963;-79
2022/10/18 16:26:30;;;;;;;;;;;18.30;99.90;;;;;;5066963;28;19939;-79
2022/10/18 16:28:56;;;;;;;;;;;18.30;99.90;;;;;;5078149;28;19920;-79
2022/10/18 16:31:26;;;;;;;;;;;18.30;99.90;;;;;;5079451;28;19923;-79
2022/10/18 16:33:53;;;;;;;;;;;18.20;99.90;;;;;;5080700;28;19913;-79
2022/10/18 16:36:20;;;;;;;;;;;18.20;99.90;;;;;;5076340;28;20292;-79
2022/10/18 16:38:51;;;;;;;;;;;18.20;99.90;;;;;;5088164;28;19948;-84
2022/10/18 16:41:17;;;;;;;;;;;18.10;99.90;;;;;;5073287;28;19920;-84
2022/10/18 16:43:44;;;;;;;;;;;18.10;99.90;;;;;;5091939;28;19980;-83
2022/10/18 16:46:29;;;;;;;;;;;18.10;99.90;;;;;;5090235;28;19927;-84
2022/10/18 16:48:55;;;;;;;;;;;18.10;99.90;;;;;;5073164;28;19912;-83
2022/10/18 16:51:24;;;;;;;;;;;18.10;99.90;;;;;;5074606;28;19944;-83
2022/10/18 16:53:52;;;;;;;;;;;18.00;99.90;;;;;;5092499;28;19912;-83
2022/10/18 16:56:30;;;;;;;;;;;18.00;99.90;;;;;;5073340;28;19962;-83
2022/10/18 16:58:56;;;;;;;;;;;18.00;99.90;;;;;;5089891;28;19913;-83
2022/10/18 17:01:22;;;;;;;;;;;18.00;99.90;;;;;;5092157;28;19930;-83
2022/10/18 17:03:50;;;;;;;;;;;17.90;99.90;;;;;;5091205;28;19912;-83
2022/10/18 17:06:21;;;;;;;;;;;17.90;99.90;;;;;;5091072;28;19905;-83
2022/10/18 17:08:49;;;;;;;;;;;17.90;99.90;;;;;;5096900;28;19919;-83
2022/10/18 17:11:15;;;;;;;;;;;17.90;99.90;;;;;;5072888;28;19909;-83
2022/10/18 17:13:41;;;;;;;;;;;17.90;99.90;;;;;;5106844;28;19924;-83
2022/10/18 17:16:17;;;;;;;;;;;17.80;99.90;;;;;;5072652;28;19912;-84
2022/10/18 17:18:43;;;;;;;;;;;17.90;99.90;;;;;;5091393;28;19975;-83
2022/10/18 17:21:09;;;;;;;;;;;17.80;99.90;;;;;;5072769;28;19920;-83
2022/10/18 17:23:34;;;;;;;;;;;17.90;99.90;;;;;;5088496;28;20018;-83
2022/10/18 17:26:00;;;;;;;;;;;17.80;99.90;;;;;;5067745;28;19912;-83
2022/10/18 17:28:27;;;;;;;;;;;17.70;99.90;;;;;;5073472;28;19923;-83
2022/10/18 17:30:55;;;;;;;;;;;17.70;99.90;;;;;;5075283;28;19940;-85
2022/10/18 17:33:21;;;;;;;;;;;17.70;99.90;;;;;;5092745;28;19896;-85
2022/10/18 17:35:52;;;;;;;;;;;17.80;99.90;;;;;;5074438;28;19909;-84
2022/10/18 17:38:18;;;;;;;;;;;17.80;99.90;;;;;;5092386;28;19896;-84
2022/10/18 17:40:51;;;;;;;;;;;17.80;99.90;;;;;;5092088;28;19923;-84
2022/10/18 17:43:17;;;;;;;;;;;17.70;99.90;;;;;;5095938;28;19911;-84
2022/10/18 17:45:47;;;;;;;;;;;17.90;99.90;;;;;;5096288;28;19951;-85
2022/10/18 17:48:13;;;;;;;;;;;17.90;99.90;;;;;;5078398;28;19913;-84
2022/10/18 17:50:39;;;;;;;;;;;18.00;99.90;;;;;;5094861;28;19907;-84
2022/10/18 17:53:05;;;;;;;;;;;18.00;99.90;;;;;;5074440;28;19947;-84
2022/10/18 17:55:34;;;;;;;;;;;17.90;99.90;;;;;;5100137;28;19912;-84
2022/10/18 17:58:00;;;;;;;;;;;17.90;99.90;;;;;;5096906;28;19916;-85
2022/10/18 18:00:29;;;;;;;;;;;17.90;99.90;;;;;;5095025;28;19938;-85
2022/10/18 18:03:01;;;;;;;;;;;17.90;99.90;;;;;;5081280;28;19912;-84
2022/10/18 18:05:35;;;;;;;;;;;17.90;99.90;;;;;;5096964;28;19901;-85
2022/10/18 18:08:06;;;;;;;;;;;17.90;99.90;;;;;;5092748;28;19944;-84
2022/10/18 18:10:32;;;;;;;;;;;17.70;99.90;;;;;;5077535;28;19932;-85
2022/10/18 18:12:58;;;;;;;;;;;17.70;99.90;;;;;;5081509;28;19916;-85
2022/10/18 18:15:24;;;;;;;;;;;17.60;99.90;;;;;;5100861;28;19916;-85
2022/10/18 18:17:49;;;;;;;;;;;17.50;99.90;;;;;;5079092;28;19923;-85
2022/10/18 18:20:15;;;;;;;;;;;17.40;99.90;;;;;;5102857;28;19931;-84
2022/10/18 18:22:44;;;;;;;;;;;17.40;99.90;;;;;;5095773;28;19920;-84
2022/10/18 18:25:15;;;;;;;;;;;17.30;99.90;;;;;;5078690;28;19974;-86
2022/10/18 18:27:44;;;;;;;;;;;17.40;99.90;;;;;;5078142;28;19917;-86
2022/10/18 18:30:24;;;;;;;;;;;17.50;99.90;;;;;;5081556;28;19912;-86
2022/10/18 18:32:59;;;;;;;;;;;17.60;99.90;;;;;;5080600;28;19913;-85
2022/10/18 18:35:31;;;;;;;;;;;17.60;99.90;;;;;;5077866;28;20380;-85
2022/10/18 18:37:59;;;;;;;;;;;17.50;99.90;;;;;;5078585;28;19901;-84
2022/10/18 18:40:25;;;;;;;;;;;17.60;99.90;;;;;;5081172;28;19934;-85
2022/10/18 18:42:51;;;;;;;;;;;17.60;99.90;;;;;;5070325;28;19912;-85
2022/10/18 18:45:19;;;;;;;;;;;17.60;99.90;;;;;;5089393;28;19908;-85
2022/10/18 18:47:49;;;;;;;;;;;17.60;99.90;;;;;;5078914;28;19963;-85
2022/10/18 18:50:15;;;;;;;;;;;17.50;99.90;;;;;;5093936;28;20103;-84
2022/10/18 18:52:41;;;;;;;;;;;17.50;99.90;;;;;;5100026;28;19920;-84
2022/10/18 18:55:07;;;;;;;;;;;17.50;99.90;;;;;;5075205;28;19908;-86
2022/10/18 18:57:33;;;;;;;;;;;17.60;99.90;;;;;;5075283;28;19951;-83
2022/10/18 18:59:59;;;;;;;;;;;17.60;99.90;;;;;;5075337;28;19909;-85
2022/10/18 19:02:24;;;;;;;;;;;17.60;99.90;;;;;;5075989;28;19911;-83
2022/10/18 19:04:50;;;;;;;;;;;17.60;99.90;;;;;;5074125;28;19947;-84
2022/10/18 19:07:19;;;;;;;;;;;17.40;99.90;;;;;;5093350;28;19916;-83
2022/10/18 19:09:47;;;;;;;;;;;17.50;99.90;;;;;;5078935;28;19905;-85
2022/10/18 19:12:24;;;;;;;;;;;17.60;99.90;;;;;;5082730;28;19916;-84
2022/10/18 19:14:55;;;;;;;;;;;17.60;99.90;;;;;;5076649;28;19913;-85
2022/10/18 19:17:27;;;;;;;;;;;17.50;99.90;;;;;;5093650;28;19980;-84
2022/10/18 19:19:53;;;;;;;;;;;17.50;99.90;;;;;;5100158;28;19973;-85
2022/10/18 19:22:19;;;;;;;;;;;17.50;99.90;;;;;;5092129;28;19912;-83
2022/10/18 19:24:45;;;;;;;;;;;17.40;99.90;;;;;;5079553;28;19917;-84
2022/10/18 19:27:16;;;;;;;;;;;17.40;99.90;;;;;;5074534;28;19928;-84
2022/10/18 19:29:47;;;;;;;;;;;17.30;99.90;;;;;;5075641;28;19912;-84
2022/10/18 19:32:17;;;;;;;;;;;17.20;99.90;;;;;;5093654;28;20010;-85
2022/10/18 19:34:46;;;;;;;;;;;17.10;99.90;;;;;;5075754;28;19967;-85
2022/10/18 19:37:12;;;;;;;;;;;17.10;99.90;;;;;;5109680;28;19930;-85
2022/10/18 19:39:38;;;;;;;;;;;17.10;99.90;;;;;;5075511;28;19922;-85
2022/10/18 19:42:05;;;;;;;;;;;17.20;99.90;;;;;;5076204;28;19908;-84
2022/10/18 19:44:32;;;;;;;;;;;17.20;99.90;;;;;;5093356;28;19913;-85
2022/10/18 19:46:58;;;;;;;;;;;17.20;99.90;;;;;;5092961;28;19919;-84
2022/10/18 19:49:24;;;;;;;;;;;17.10;99.90;;;;;;5074432;28;20436;-84
2022/10/18 19:51:50;;;;;;;;;;;17.10;99.90;;;;;;5073952;28;20125;-84
2022/10/18 19:54:16;;;;;;;;;;;17.10;99.90;;;;;;5074433;28;19912;-84
2022/10/18 19:56:41;;;;;;;;;;;17.10;99.90;;;;;;5072477;28;19991;-84
2022/10/18 19:59:12;;;;;;;;;;;17.00;99.90;;;;;;5091163;28;19923;-85
2022/10/18 20:01:38;;;;;;;;;;;16.90;99.90;;;;;;5079616;28;19936;-83
2022/10/18 20:04:07;;;;;;;;;;;17.00;99.90;;;;;;5075409;28;19909;-85
2022/10/18 20:06:33;;;;;;;;;;;17.00;99.90;;;;;;5073736;28;19920;-84
2022/10/18 20:08:59;;;;;;;;;;;16.90;99.90;;;;;;5075211;28;19972;-84
2022/10/18 20:11:26;;;;;;;;;;;16.80;99.90;;;;;;5078038;28;19912;-84
2022/10/18 20:13:52;;;;;;;;;;;16.70;99.90;;;;;;5108030;28;19916;-84
2022/10/18 20:16:19;;;;;;;;;;;16.70;99.90;;;;;;5079746;28;19923;-84
2022/10/18 20:18:47;;;;;;;;;;;16.80;99.90;;;;;;5078878;28;19912;-84
2022/10/18 20:21:14;;;;;;;;;;;16.90;99.90;;;;;;5099766;28;19916;-84
2022/10/18 20:23:41;;;;;;;;;;;17.00;99.90;;;;;;5074796;28;19920;-84
2022/10/18 20:26:14;;;;;;;;;;;17.10;99.90;;;;;;5092741;28;19959;-84
2022/10/18 20:28:40;;;;;;;;;;;17.10;99.90;;;;;;5093245;28;20431;-85
2022/10/18 20:31:10;;;;;;;;;;;17.00;99.90;;;;;;5093327;28;19909;-84
2022/10/18 20:33:36;;;;;;;;;;;17.10;99.90;;;;;;5073320;28;19915;-84
2022/10/18 20:36:06;;;;;;;;;;;17.10;99.90;;;;;;5073139;28;19909;-84
2022/10/18 20:38:33;;;;;;;;;;;17.10;99.90;;;;;;5055699;28;19913;-84
2022/10/18 20:41:06;;;;;;;;;;;17.00;99.90;;;;;;5053160;28;19909;-84
2022/10/18 20:43:42;;;;;;;;;;;17.00;99.90;;;;;;5087403;28;20370;-84
2022/10/18 20:46:11;;;;;;;;;;;16.70;99.90;;;;;;5075843;28;19966;-84
2022/10/18 20:48:39;;;;;;;;;;;16.70;99.90;;;;;;5082476;28;19928;-84
2022/10/18 20:51:06;;;;;;;;;;;16.70;99.90;;;;;;5070135;28;19916;-84
2022/10/18 20:53:33;;;;;;;;;;;16.60;99.90;;;;;;5071781;28;19920;-84
2022/10/18 20:56:11;;;;;;;;;;;16.50;99.90;;;;;;5088789;28;19923;-84
2022/10/18 20:58:38;;;;;;;;;;;16.40;99.90;;;;;;5072445;28;19913;-84
2022/10/18 21:01:06;;;;;;;;;;;16.20;99.90;;;;;;5070507;28;19921;-85
2022/10/18 21:03:32;;;;;;;;;;;16.40;99.90;;;;;;5071879;28;19935;-85
2022/10/18 21:06:01;;;;;;;;;;;16.40;99.90;;;;;;5070840;28;19912;-84
2022/10/18 21:08:27;;;;;;;;;;;16.30;99.90;;;;;;5089412;28;19913;-84
2022/10/18 21:10:55;;;;;;;;;;;16.30;99.90;;;;;;5070302;28;19953;-84
2022/10/18 21:13:24;;;;;;;;;;;16.30;99.90;;;;;;5070777;28;19935;-85
2022/10/18 21:16:08;;;;;;;;;;;16.30;99.90;;;;;;5076739;28;19912;-84
2022/10/18 21:18:40;;;;;;;;;;;16.20;99.90;;;;;;5120248;28;19938;-84
2022/10/18 21:21:10;;;;;;;;;;;16.20;99.90;;;;;;5081666;28;19972;-84
2022/10/18 21:23:40;;;;;;;;;;;16.40;99.90;;;;;;5084509;28;19908;-84
2022/10/18 21:26:09;;;;;;;;;;;16.40;99.90;;;;;;5110645;28;19975;-84
2022/10/18 21:28:35;;;;;;;;;;;16.40;99.90;;;;;;5093378;28;19943;-84
2022/10/18 21:31:18;;;;;;;;;;;16.40;99.90;;;;;;5096345;28;19919;-84
2022/10/18 21:33:47;;;;;;;;;;;16.30;99.90;;;;;;5080431;28;19909;-84
2022/10/18 21:36:19;;;;;;;;;;;16.30;99.90;;;;;;5088348;28;19984;-85
2022/10/18 21:38:46;;;;;;;;;;;16.20;99.90;;;;;;5090875;28;19913;-84
2022/10/18 21:41:12;;;;;;;;;;;16.10;99.90;;;;;;5091777;28;20446;-84